Portland, New York
Current Conditions -  °F | °C
As of 3:16 AM on Tuesday 27 Jan 2015 (Local Time) from KDKK Reporting Station
Overcast Overcast  
Wind Chill:   Ceiling: 5500
Heat Index: 17°   Visibility: 10mi
Dew Point: 13°   Wind: 10mph
Humidity: 84%   Direction: 50°NE
Pressure: 29.91"   Gusts: NA
Location:  42.38°N, 79.47°W
Report Text: KDKK 270816Z AUTO 05009KT 10SM SCT013 OVC055 M08/M11 A2991 RMK AO2 SNE0755 P0000 T10831106
Loading
Personal Weather Stations






























Interactive Weather Map New forecast layout! Learn more

10-Day Weather Forecast

Advertisements
Track Severe Weather on mobile